sensor_id;sensor_type;location;lat;lon;timestamp;pressure;altitude;pressure_sealevel;temperature;humidity
72677;BME280;60755;51.374;10.662;2023-04-27T00:01:14;97430.75;;;-0.02;90.14
72677;BME280;60755;51.374;10.662;2023-04-27T00:03:41;97433.19;;;-0.01;89.41
72677;BME280;60755;51.374;10.662;2023-04-27T00:06:10;97433.19;;;-0.09;89.20
72677;BME280;60755;51.374;10.662;2023-04-27T00:08:37;97427.72;;;-0.22;89.35
72677;BME280;60755;51.374;10.662;2023-04-27T00:11:04;97426.59;;;-0.19;89.87
72677;BME280;60755;51.374;10.662;2023-04-27T00:13:31;97431.91;;;-0.21;89.49
72677;BME280;60755;51.374;10.662;2023-04-27T00:15:59;97423.03;;;-0.26;89.74
72677;BME280;60755;51.374;10.662;2023-04-27T00:18:30;97428.03;;;-0.25;89.60
72677;BME280;60755;51.374;10.662;2023-04-27T00:20:58;97422.06;;;-0.17;89.42
72677;BME280;60755;51.374;10.662;2023-04-27T00:23:24;97427.72;;;0.03;89.61
72677;BME280;60755;51.374;10.662;2023-04-27T00:25:52;97426.72;;;0.12;89.20
72677;BME280;60755;51.374;10.662;2023-04-27T00:28:19;97422.50;;;0.19;89.40
72677;BME280;60755;51.374;10.662;2023-04-27T00:30:46;97439.78;;;0.26;89.76
72677;BME280;60755;51.374;10.662;2023-04-27T00:33:13;97429.72;;;0.40;89.34
72677;BME280;60755;51.374;10.662;2023-04-27T00:35:41;97427.59;;;0.51;89.73
72677;BME280;60755;51.374;10.662;2023-04-27T00:38:08;97426.59;;;0.61;88.34
72677;BME280;60755;51.374;10.662;2023-04-27T00:40:35;97431.91;;;0.67;87.46
72677;BME280;60755;51.374;10.662;2023-04-27T00:43:02;97426.19;;;0.80;88.21
72677;BME280;60755;51.374;10.662;2023-04-27T00:45:29;97424.09;;;0.83;87.75
72677;BME280;60755;51.374;10.662;2023-04-27T00:47:57;97415.81;;;0.88;87.41
72677;BME280;60755;51.374;10.662;2023-04-27T00:50:27;97415.63;;;0.98;86.82
72677;BME280;60755;51.374;10.662;2023-04-27T00:52:56;97417.69;;;1.02;86.19
72677;BME280;60755;51.374;10.662;2023-04-27T00:55:23;97421.59;;;0.98;86.35
72677;BME280;60755;51.374;10.662;2023-04-27T00:57:50;97425.00;;;0.99;87.04
72677;BME280;60755;51.374;10.662;2023-04-27T01:00:17;97415.09;;;1.02;87.13
72677;BME280;60755;51.374;10.662;2023-04-27T01:02:44;97416.88;;;1.02;88.71
72677;BME280;60755;51.374;10.662;2023-04-27T01:05:16;97416.69;;;1.03;87.90
72677;BME280;60755;51.374;10.662;2023-04-27T01:07:45;97419.56;;;1.17;87.85
72677;BME280;60755;51.374;10.662;2023-04-27T01:10:13;97422.50;;;1.14;86.71
72677;BME280;60755;51.374;10.662;2023-04-27T01:12:41;97423.44;;;1.21;87.06
72677;BME280;60755;51.374;10.662;2023-04-27T01:15:09;97424.41;;;1.11;85.80
72677;BME280;60755;51.374;10.662;2023-04-27T01:17:38;97423.16;;;1.07;85.04
72677;BME280;60755;51.374;10.662;2023-04-27T01:20:06;97422.75;;;1.19;87.24
72677;BME280;60755;51.374;10.662;2023-04-27T01:22:35;97424.00;;;1.31;86.85
72677;BME280;60755;51.374;10.662;2023-04-27T01:25:04;97425.44;;;1.33;88.04
72677;BME280;60755;51.374;10.662;2023-04-27T01:27:32;97426.41;;;1.32;86.91
72677;BME280;60755;51.374;10.662;2023-04-27T01:29:59;97423.03;;;1.32;87.44
72677;BME280;60755;51.374;10.662;2023-04-27T01:32:26;97420.97;;;1.19;86.80
72677;BME280;60755;51.374;10.662;2023-04-27T01:34:53;97420.19;;;1.19;87.48
72677;BME280;60755;51.374;10.662;2023-04-27T01:37:25;97433.78;;;1.21;86.09
72677;BME280;60755;51.374;10.662;2023-04-27T01:39:52;97430.44;;;1.35;86.42
72677;BME280;60755;51.374;10.662;2023-04-27T01:42:20;97434.13;;;1.40;85.48
72677;BME280;60755;51.374;10.662;2023-04-27T01:44:47;97435.88;;;1.48;85.82
72677;BME280;60755;51.374;10.662;2023-04-27T01:47:14;97440.06;;;1.49;87.32
72677;BME280;60755;51.374;10.662;2023-04-27T01:49:42;97435.97;;;1.55;86.25
72677;BME280;60755;51.374;10.662;2023-04-27T01:52:09;97431.06;;;1.60;87.94
72677;BME280;60755;51.374;10.662;2023-04-27T01:54:35;97430.56;;;1.64;86.22
72677;BME280;60755;51.374;10.662;2023-04-27T01:57:02;97428.97;;;1.63;88.00
72677;BME280;60755;51.374;10.662;2023-04-27T01:59:31;97427.59;;;1.53;88.02
72677;BME280;60755;51.374;10.662;2023-04-27T02:01:58;97432.22;;;1.57;87.27
72677;BME280;60755;51.374;10.662;2023-04-27T02:04:25;97435.81;;;1.56;86.65
72677;BME280;60755;51.374;10.662;2023-04-27T02:06:52;97439.06;;;1.50;84.70
72677;BME280;60755;51.374;10.662;2023-04-27T02:09:18;97441.66;;;1.50;83.76
72677;BME280;60755;51.374;10.662;2023-04-27T02:11:46;97452.66;;;1.52;84.04
72677;BME280;60755;51.374;10.662;2023-04-27T02:14:12;97447.16;;;1.55;84.58
72677;BME280;60755;51.374;10.662;2023-04-27T02:16:41;97455.72;;;1.56;84.46
72677;BME280;60755;51.374;10.662;2023-04-27T02:19:08;97450.59;;;1.71;86.05
72677;BME280;60755;51.374;10.662;2023-04-27T02:21:34;97451.22;;;1.73;86.63
72677;BME280;60755;51.374;10.662;2023-04-27T02:24:02;97451.03;;;1.74;84.89
72677;BME280;60755;51.374;10.662;2023-04-27T02:26:29;97449.44;;;1.73;85.99
72677;BME280;60755;51.374;10.662;2023-04-27T02:28:57;97454.78;;;1.72;86.18
72677;BME280;60755;51.374;10.662;2023-04-27T02:31:24;97455.66;;;1.64;86.33
72677;BME280;60755;51.374;10.662;2023-04-27T02:33:52;97465.91;;;1.57;86.40
72677;BME280;60755;51.374;10.662;2023-04-27T02:36:23;97463.94;;;1.59;84.71
72677;BME280;60755;51.374;10.662;2023-04-27T02:38:54;97460.03;;;1.63;86.05
72677;BME280;60755;51.374;10.662;2023-04-27T02:41:21;97462.22;;;1.75;87.29
72677;BME280;60755;51.374;10.662;2023-04-27T02:43:49;97460.59;;;1.74;87.08
72677;BME280;60755;51.374;10.662;2023-04-27T02:46:16;97474.19;;;1.76;86.26
72677;BME280;60755;51.374;10.662;2023-04-27T02:48:43;97469.72;;;1.70;87.08
72677;BME280;60755;51.374;10.662;2023-04-27T02:51:12;97471.16;;;1.72;85.11
72677;BME280;60755;51.374;10.662;2023-04-27T02:53:39;97465.47;;;1.77;86.93
72677;BME280;60755;51.374;10.662;2023-04-27T02:56:06;97465.84;;;1.65;87.25
72677;BME280;60755;51.374;10.662;2023-04-27T02:58:33;97472.97;;;1.63;85.86
72677;BME280;60755;51.374;10.662;2023-04-27T03:00:59;97475.88;;;1.68;87.47
72677;BME280;60755;51.374;10.662;2023-04-27T03:03:27;97477.56;;;1.76;87.15
72677;BME280;60755;51.374;10.662;2023-04-27T03:05:54;97482.59;;;1.78;86.08
72677;BME280;60755;51.374;10.662;2023-04-27T03:08:22;97484.41;;;1.77;86.53
72677;BME280;60755;51.374;10.662;2023-04-27T03:10:49;97478.34;;;1.85;85.00
72677;BME280;60755;51.374;10.662;2023-04-27T03:13:16;97483.16;;;1.88;86.55
72677;BME280;60755;51.374;10.662;2023-04-27T03:15:43;97485.41;;;1.91;84.77
72677;BME280;60755;51.374;10.662;2023-04-27T03:18:11;97495.16;;;1.89;86.59
72677;BME280;60755;51.374;10.662;2023-04-27T03:20:39;97482.38;;;1.87;85.07
72677;BME280;60755;51.374;10.662;2023-04-27T03:23:06;97483.16;;;1.88;87.50
72677;BME280;60755;51.374;10.662;2023-04-27T03:25:35;97484.22;;;1.79;87.20
72677;BME280;60755;51.374;10.662;2023-04-27T03:28:02;97481.31;;;1.74;86.03
72677;BME280;60755;51.374;10.662;2023-04-27T03:30:29;97487.31;;;1.74;87.64
72677;BME280;60755;51.374;10.662;2023-04-27T03:32:56;97495.63;;;1.70;88.27
72677;BME280;60755;51.374;10.662;2023-04-27T03:35:23;97495.63;;;1.70;87.62
72677;BME280;60755;51.374;10.662;2023-04-27T03:37:50;97488.81;;;1.68;87.76
72677;BME280;60755;51.374;10.662;2023-04-27T03:40:17;97494.81;;;1.69;88.37
72677;BME280;60755;51.374;10.662;2023-04-27T03:42:46;97495.31;;;1.64;87.50
72677;BME280;60755;51.374;10.662;2023-04-27T03:45:13;97491.13;;;1.63;88.49
72677;BME280;60755;51.374;10.662;2023-04-27T03:47:41;97494.00;;;1.68;87.50
72677;BME280;60755;51.374;10.662;2023-04-27T03:50:09;97494.97;;;1.67;87.45
72677;BME280;60755;51.374;10.662;2023-04-27T03:52:35;97491.06;;;1.72;87.11
72677;BME280;60755;51.374;10.662;2023-04-27T03:55:04;97502.59;;;1.69;86.68
72677;BME280;60755;51.374;10.662;2023-04-27T03:57:32;97506.13;;;1.68;85.82
72677;BME280;60755;51.374;10.662;2023-04-27T04:00:00;97500.44;;;1.73;86.48
72677;BME280;60755;51.374;10.662;2023-04-27T04:02:38;97503.53;;;1.68;86.58
72677;BME280;60755;51.374;10.662;2023-04-27T04:05:05;97502.03;;;1.74;86.98
72677;BME280;60755;51.374;10.662;2023-04-27T04:07:33;97490.94;;;1.65;88.76
72677;BME280;60755;51.374;10.662;2023-04-27T04:10:00;97499.56;;;1.57;87.72
72677;BME280;60755;51.374;10.662;2023-04-27T04:12:27;97497.94;;;1.56;87.12
72677;BME280;60755;51.374;10.662;2023-04-27T04:14:54;97505.09;;;1.54;88.88
72677;BME280;60755;51.374;10.662;2023-04-27T04:17:22;97499.56;;;1.57;88.93
72677;BME280;60755;51.374;10.662;2023-04-27T04:19:49;97500.38;;;1.58;88.77
72677;BME280;60755;51.374;10.662;2023-04-27T04:22:16;97499.88;;;1.62;88.39
72677;BME280;60755;51.374;10.662;2023-04-27T04:24:44;97495.13;;;1.66;90.57
72677;BME280;60755;51.374;10.662;2023-04-27T04:27:11;97488.66;;;1.70;89.24
72677;BME280;60755;51.374;10.662;2023-04-27T04:29:38;97497.22;;;1.71;90.01
72677;BME280;60755;51.374;10.662;2023-04-27T04:32:05;97495.25;;;1.73;87.64
72677;BME280;60755;51.374;10.662;2023-04-27T04:34:37;97489.22;;;1.80;88.69
72677;BME280;60755;51.374;10.662;2023-04-27T04:37:04;97490.31;;;1.86;87.31
72677;BME280;60755;51.374;10.662;2023-04-27T04:39:31;97484.53;;;1.99;87.25
72677;BME280;60755;51.374;10.662;2023-04-27T04:41:59;97487.81;;;2.15;86.49
72677;BME280;60755;51.374;10.662;2023-04-27T04:44:28;97486.34;;;2.36;84.50
72677;BME280;60755;51.374;10.662;2023-04-27T04:46:55;97489.94;;;2.64;83.13
72677;BME280;60755;51.374;10.662;2023-04-27T04:49:25;97487.91;;;2.89;82.55
72677;BME280;60755;51.374;10.662;2023-04-27T04:51:53;97488.94;;;3.24;81.45
72677;BME280;60755;51.374;10.662;2023-04-27T04:54:20;97487.56;;;3.28;79.91
72677;BME280;60755;51.374;10.662;2023-04-27T04:56:47;97492.81;;;2.99;79.80
72677;BME280;60755;51.374;10.662;2023-04-27T04:59:14;97488.25;;;3.16;80.56
72677;BME280;60755;51.374;10.662;2023-04-27T05:01:42;97480.22;;;3.47;77.67
72677;BME280;60755;51.374;10.662;2023-04-27T05:04:08;97479.97;;;3.63;77.39
72677;BME280;60755;51.374;10.662;2023-04-27T05:06:36;97488.91;;;3.97;77.72
72677;BME280;60755;51.374;10.662;2023-04-27T05:09:04;97491.22;;;4.13;76.61
72677;BME280;60755;51.374;10.662;2023-04-27T05:11:31;97488.44;;;4.70;73.48
72677;BME280;60755;51.374;10.662;2023-04-27T05:13:58;97498.44;;;4.67;73.23
72677;BME280;60755;51.374;10.662;2023-04-27T05:16:25;97507.34;;;4.51;72.52
72677;BME280;60755;51.374;10.662;2023-04-27T05:18:52;97498.78;;;4.08;72.65
72677;BME280;60755;51.374;10.662;2023-04-27T05:21:19;97502.97;;;4.30;73.25
72677;BME280;60755;51.374;10.662;2023-04-27T05:23:46;97498.03;;;4.35;74.36
72677;BME280;60755;51.374;10.662;2023-04-27T05:26:17;97509.44;;;4.41;72.61
72677;BME280;60755;51.374;10.662;2023-04-27T05:28:44;97515.88;;;4.66;72.80
72677;BME280;60755;51.374;10.662;2023-04-27T05:31:13;97508.28;;;5.06;71.30
72677;BME280;60755;51.374;10.662;2023-04-27T05:33:40;97522.88;;;5.42;73.40
72677;BME280;60755;51.374;10.662;2023-04-27T05:36:08;97521.56;;;5.66;72.06
72677;BME280;60755;51.374;10.662;2023-04-27T05:38:35;97527.41;;;5.81;70.39
72677;BME280;60755;51.374;10.662;2023-04-27T05:41:04;97520.22;;;5.89;70.62
72677;BME280;60755;51.374;10.662;2023-04-27T05:43:32;97528.84;;;5.90;71.31
72677;BME280;60755;51.374;10.662;2023-04-27T05:46:02;97540.19;;;5.69;71.45
72677;BME280;60755;51.374;10.662;2023-04-27T05:48:29;97535.59;;;5.17;71.95
72677;BME280;60755;51.374;10.662;2023-04-27T05:50:59;97538.75;;;5.05;72.08
72677;BME280;60755;51.374;10.662;2023-04-27T05:53:27;97538.22;;;4.89;72.44
72677;BME280;60755;51.374;10.662;2023-04-27T05:55:54;97539.25;;;4.94;72.31
72677;BME280;60755;51.374;10.662;2023-04-27T05:58:23;97539.88;;;4.96;73.00
72677;BME280;60755;51.374;10.662;2023-04-27T06:00:52;97538.34;;;5.09;72.48
72677;BME280;60755;51.374;10.662;2023-04-27T06:03:19;97544.78;;;5.13;72.73
72677;BME280;60755;51.374;10.662;2023-04-27T06:05:46;97550.63;;;5.15;72.44
72677;BME280;60755;51.374;10.662;2023-04-27T06:08:13;97556.63;;;5.15;74.44
72677;BME280;60755;51.374;10.662;2023-04-27T06:10:40;97557.34;;;5.02;74.11
72677;BME280;60755;51.374;10.662;2023-04-27T06:13:07;97563.69;;;4.93;74.55
72677;BME280;60755;51.374;10.662;2023-04-27T06:15:34;97560.59;;;5.11;74.62
72677;BME280;60755;51.374;10.662;2023-04-27T06:18:02;97560.88;;;5.23;74.39
72677;BME280;60755;51.374;10.662;2023-04-27T06:20:30;97558.78;;;5.46;73.12
72677;BME280;60755;51.374;10.662;2023-04-27T06:22:57;97559.03;;;5.17;73.64
72677;BME280;60755;51.374;10.662;2023-04-27T06:25:25;97550.69;;;5.34;73.53
72677;BME280;60755;51.374;10.662;2023-04-27T06:27:53;97549.63;;;5.16;73.14
72677;BME280;60755;51.374;10.662;2023-04-27T06:30:20;97548.63;;;5.65;72.59
72677;BME280;60755;51.374;10.662;2023-04-27T06:32:47;97547.31;;;5.88;72.38
72677;BME280;60755;51.374;10.662;2023-04-27T06:35:16;97549.88;;;7.47;68.43
72677;BME280;60755;51.374;10.662;2023-04-27T06:37:43;97547.00;;;7.94;64.94
72677;BME280;60755;51.374;10.662;2023-04-27T06:40:10;97548.00;;;8.62;63.36
72677;BME280;60755;51.374;10.662;2023-04-27T06:42:37;97552.25;;;7.49;64.96
72677;BME280;60755;51.374;10.662;2023-04-27T06:45:05;97552.59;;;8.10;63.76
72677;BME280;60755;51.374;10.662;2023-04-27T06:47:32;97563.31;;;7.96;63.27
72677;BME280;60755;51.374;10.662;2023-04-27T06:49:59;97561.38;;;7.78;63.79
72677;BME280;60755;51.374;10.662;2023-04-27T06:52:27;97565.00;;;7.83;64.16
72677;BME280;60755;51.374;10.662;2023-04-27T06:54:57;97559.97;;;8.20;62.32
72677;BME280;60755;51.374;10.662;2023-04-27T06:57:24;97567.72;;;8.65;62.59
72677;BME280;60755;51.374;10.662;2023-04-27T06:59:50;97567.97;;;8.57;61.46
72677;BME280;60755;51.374;10.662;2023-04-27T07:02:17;97577.63;;;7.93;62.65
72677;BME280;60755;51.374;10.662;2023-04-27T07:04:45;97567.06;;;7.68;63.51
72677;BME280;60755;51.374;10.662;2023-04-27T07:07:12;97579.72;;;6.73;65.30
72677;BME280;60755;51.374;10.662;2023-04-27T07:09:40;97582.75;;;6.44;68.87
72677;BME280;60755;51.374;10.662;2023-04-27T07:12:07;97584.56;;;6.90;68.89
72677;BME280;60755;51.374;10.662;2023-04-27T07:14:34;97573.72;;;6.93;66.98
72677;BME280;60755;51.374;10.662;2023-04-27T07:17:01;97585.38;;;6.84;66.50
72677;BME280;60755;51.374;10.662;2023-04-27T07:19:28;97584.53;;;7.23;66.73
72677;BME280;60755;51.374;10.662;2023-04-27T07:21:55;97581.06;;;7.29;65.25
72677;BME280;60755;51.374;10.662;2023-04-27T07:24:22;97578.41;;;7.49;64.94
72677;BME280;60755;51.374;10.662;2023-04-27T07:26:50;97582.50;;;7.25;65.51
72677;BME280;60755;51.374;10.662;2023-04-27T07:29:17;97579.81;;;8.03;64.29
72677;BME280;60755;51.374;10.662;2023-04-27T07:31:44;97572.69;;;8.73;62.52
72677;BME280;60755;51.374;10.662;2023-04-27T07:34:11;97574.03;;;9.07;59.82
72677;BME280;60755;51.374;10.662;2023-04-27T07:36:38;97575.28;;;9.23;60.78
72677;BME280;60755;51.374;10.662;2023-04-27T07:39:05;97569.66;;;8.13;62.98
72677;BME280;60755;51.374;10.662;2023-04-27T07:41:32;97577.03;;;9.47;60.39
72677;BME280;60755;51.374;10.662;2023-04-27T07:44:01;97583.94;;;10.08;58.79
72677;BME280;60755;51.374;10.662;2023-04-27T07:46:28;97576.16;;;9.72;57.02
72677;BME280;60755;51.374;10.662;2023-04-27T07:48:56;97573.63;;;11.49;53.59
72677;BME280;60755;51.374;10.662;2023-04-27T07:51:25;97587.16;;;10.94;53.86
72677;BME280;60755;51.374;10.662;2023-04-27T07:53:53;97582.78;;;11.11;54.27
72677;BME280;60755;51.374;10.662;2023-04-27T07:56:20;97582.56;;;10.78;53.56
72677;BME280;60755;51.374;10.662;2023-04-27T07:58:47;97580.38;;;9.36;57.09
72677;BME280;60755;51.374;10.662;2023-04-27T08:01:15;97578.44;;;11.05;54.12
72677;BME280;60755;51.374;10.662;2023-04-27T08:03:42;97591.59;;;9.43;57.66
72677;BME280;60755;51.374;10.662;2023-04-27T08:06:09;97594.56;;;9.10;58.72
72677;BME280;60755;51.374;10.662;2023-04-27T08:08:36;97590.75;;;8.81;60.53
72677;BME280;60755;51.374;10.662;2023-04-27T08:11:03;97594.00;;;9.27;59.04
72677;BME280;60755;51.374;10.662;2023-04-27T08:13:32;97583.69;;;9.98;58.64
72677;BME280;60755;51.374;10.662;2023-04-27T08:15:59;97591.19;;;9.46;57.50
72677;BME280;60755;51.374;10.662;2023-04-27T08:18:27;97590.13;;;9.66;57.29
72677;BME280;60755;51.374;10.662;2023-04-27T08:20:54;97592.91;;;9.71;57.78
72677;BME280;60755;51.374;10.662;2023-04-27T08:23:21;97588.81;;;9.38;58.63
72677;BME280;60755;51.374;10.662;2023-04-27T08:25:48;97598.59;;;9.68;56.76
72677;BME280;60755;51.374;10.662;2023-04-27T08:28:15;97600.00;;;9.09;59.54
72677;BME280;60755;51.374;10.662;2023-04-27T08:30:42;97597.25;;;9.95;56.79
72677;BME280;60755;51.374;10.662;2023-04-27T08:33:09;97599.41;;;9.32;57.26
72677;BME280;60755;51.374;10.662;2023-04-27T08:35:38;97588.81;;;9.75;56.56
72677;BME280;60755;51.374;10.662;2023-04-27T08:38:05;97594.69;;;11.49;51.12
72677;BME280;60755;51.374;10.662;2023-04-27T08:40:32;97589.72;;;9.99;51.95
72677;BME280;60755;51.374;10.662;2023-04-27T08:42:59;97579.91;;;11.36;49.48
72677;BME280;60755;51.374;10.662;2023-04-27T08:45:26;97581.84;;;11.64;49.35
72677;BME280;60755;51.374;10.662;2023-04-27T08:47:53;97576.94;;;10.51;47.86
72677;BME280;60755;51.374;10.662;2023-04-27T08:50:20;97574.53;;;10.19;48.22
72677;BME280;60755;51.374;10.662;2023-04-27T08:52:50;97575.53;;;10.48;47.29
72677;BME280;60755;51.374;10.662;2023-04-27T08:55:17;97570.97;;;11.49;44.63
72677;BME280;60755;51.374;10.662;2023-04-27T08:57:55;97563.44;;;11.29;47.57
72677;BME280;60755;51.374;10.662;2023-04-27T09:00:23;97560.84;;;12.10;48.44
72677;BME280;60755;51.374;10.662;2023-04-27T09:02:51;97563.91;;;11.26;48.57
72677;BME280;60755;51.374;10.662;2023-04-27T09:05:19;97567.47;;;9.71;53.96
72677;BME280;60755;51.374;10.662;2023-04-27T09:07:57;97567.66;;;8.72;57.31
72677;BME280;60755;51.374;10.662;2023-04-27T09:10:25;97585.31;;;8.26;57.92
72677;BME280;60755;51.374;10.662;2023-04-27T09:12:55;97582.97;;;8.11;60.66
72677;BME280;60755;51.374;10.662;2023-04-27T09:15:22;97583.13;;;7.78;60.92
72677;BME280;60755;51.374;10.662;2023-04-27T09:17:53;97578.84;;;7.91;60.83
72677;BME280;60755;51.374;10.662;2023-04-27T09:20:21;97578.31;;;8.13;60.03
72677;BME280;60755;51.374;10.662;2023-04-27T09:22:50;97580.34;;;7.73;60.41
72677;BME280;60755;51.374;10.662;2023-04-27T09:25:26;97577.53;;;7.62;61.49
72677;BME280;60755;51.374;10.662;2023-04-27T09:27:53;97578.31;;;8.13;57.83
72677;BME280;60755;51.374;10.662;2023-04-27T09:30:20;97573.13;;;8.70;58.09
72677;BME280;60755;51.374;10.662;2023-04-27T09:32:51;97572.81;;;8.28;58.01
72677;BME280;60755;51.374;10.662;2023-04-27T09:35:23;97571.47;;;8.51;58.38
72677;BME280;60755;51.374;10.662;2023-04-27T09:37:51;97567.41;;;8.55;56.33
72677;BME280;60755;51.374;10.662;2023-04-27T09:40:20;97559.38;;;9.00;56.49
72677;BME280;60755;51.374;10.662;2023-04-27T09:42:53;97567.09;;;9.13;56.31
72677;BME280;60755;51.374;10.662;2023-04-27T09:45:20;97568.69;;;9.14;55.44
72677;BME280;60755;51.374;10.662;2023-04-27T09:47:48;97568.84;;;8.76;55.78
72677;BME280;60755;51.374;10.662;2023-04-27T09:50:15;97566.97;;;8.58;55.76
72677;BME280;60755;51.374;10.662;2023-04-27T09:52:43;97567.91;;;8.88;55.08
72677;BME280;60755;51.374;10.662;2023-04-27T09:55:15;97564.25;;;9.69;52.98
72677;BME280;60755;51.374;10.662;2023-04-27T09:57:52;97565.06;;;10.60;52.48
72677;BME280;60755;51.374;10.662;2023-04-27T10:00:33;97558.94;;;11.53;50.19
72677;BME280;60755;51.374;10.662;2023-04-27T10:03:14;97556.47;;;12.15;48.28
72677;BME280;60755;51.374;10.662;2023-04-27T10:08:41;97553.34;;;12.47;43.80
72677;BME280;60755;51.374;10.662;2023-04-27T10:11:12;97547.91;;;12.70;46.20
72677;BME280;60755;51.374;10.662;2023-04-27T10:13:50;97563.41;;;10.47;50.36
72677;BME280;60755;51.374;10.662;2023-04-27T10:16:17;97550.34;;;10.94;50.60
72677;BME280;60755;51.374;10.662;2023-04-27T10:18:50;97557.41;;;9.68;53.33
72677;BME280;60755;51.374;10.662;2023-04-27T10:21:17;97558.00;;;10.00;52.00
72677;BME280;60755;51.374;10.662;2023-04-27T10:23:45;97558.88;;;9.46;55.39
72677;BME280;60755;51.374;10.662;2023-04-27T10:26:25;97562.31;;;9.46;54.29
72677;BME280;60755;51.374;10.662;2023-04-27T10:28:59;97568.69;;;9.69;53.92
72677;BME280;60755;51.374;10.662;2023-04-27T10:31:30;97550.78;;;10.68;47.71
72677;BME280;60755;51.374;10.662;2023-04-27T10:34:05;97553.72;;;11.30;47.90
72677;BME280;60755;51.374;10.662;2023-04-27T10:36:34;97562.41;;;11.42;45.99
72677;BME280;60755;51.374;10.662;2023-04-27T10:39:01;97557.28;;;12.16;45.32
72677;BME280;60755;51.374;10.662;2023-04-27T10:41:33;97550.69;;;12.47;43.07
72677;BME280;60755;51.374;10.662;2023-04-27T10:44:15;97547.41;;;12.40;41.25
72677;BME280;60755;51.374;10.662;2023-04-27T10:46:50;97543.81;;;11.08;42.00
72677;BME280;60755;51.374;10.662;2023-04-27T10:49:17;97556.03;;;11.14;45.99
72677;BME280;60755;51.374;10.662;2023-04-27T10:51:44;97549.31;;;10.83;44.79
72677;BME280;60755;51.374;10.662;2023-04-27T10:54:12;97555.13;;;10.62;45.68
72677;BME280;60755;51.374;10.662;2023-04-27T10:56:40;97544.19;;;10.23;47.39
72677;BME280;60755;51.374;10.662;2023-04-27T10:59:07;97545.94;;;10.41;44.10
72677;BME280;60755;51.374;10.662;2023-04-27T11:01:36;97543.28;;;10.29;43.97
72677;BME280;60755;51.374;10.662;2023-04-27T11:04:03;97536.72;;;10.85;45.31
72677;BME280;60755;51.374;10.662;2023-04-27T11:06:31;97543.09;;;10.66;44.42
72677;BME280;60755;51.374;10.662;2023-04-27T11:09:00;97540.16;;;11.61;45.62
72677;BME280;60755;51.374;10.662;2023-04-27T11:11:27;97541.72;;;11.22;45.42
72677;BME280;60755;51.374;10.662;2023-04-27T11:13:54;97551.69;;;11.32;44.75
72677;BME280;60755;51.374;10.662;2023-04-27T11:16:21;97538.66;;;11.65;44.16
72677;BME280;60755;51.374;10.662;2023-04-27T11:18:50;97546.09;;;10.93;45.94
72677;BME280;60755;51.374;10.662;2023-04-27T11:21:17;97551.31;;;10.46;46.51
72677;BME280;60755;51.374;10.662;2023-04-27T11:23:46;97546.34;;;9.96;45.83
72677;BME280;60755;51.374;10.662;2023-04-27T11:26:14;97532.94;;;10.16;45.91
72677;BME280;60755;51.374;10.662;2023-04-27T11:28:42;97539.97;;;10.34;46.21
72677;BME280;60755;51.374;10.662;2023-04-27T11:31:10;97542.66;;;10.81;46.23
72677;BME280;60755;51.374;10.662;2023-04-27T11:33:37;97542.03;;;10.32;46.30
72677;BME280;60755;51.374;10.662;2023-04-27T11:36:16;97534.91;;;10.86;47.35
72677;BME280;60755;51.374;10.662;2023-04-27T11:38:43;97538.66;;;11.13;45.67
72677;BME280;60755;51.374;10.662;2023-04-27T11:41:10;97533.16;;;11.27;43.79
72677;BME280;60755;51.374;10.662;2023-04-27T11:43:40;97522.63;;;12.74;41.76
72677;BME280;60755;51.374;10.662;2023-04-27T11:46:08;97526.72;;;13.37;42.97
72677;BME280;60755;51.374;10.662;2023-04-27T11:48:37;97533.84;;;12.81;41.40
72677;BME280;60755;51.374;10.662;2023-04-27T11:51:05;97534.19;;;13.07;44.92
72677;BME280;60755;51.374;10.662;2023-04-27T11:53:35;97538.25;;;13.75;43.18
72677;BME280;60755;51.374;10.662;2023-04-27T11:56:04;97531.38;;;13.96;40.38
72677;BME280;60755;51.374;10.662;2023-04-27T11:58:32;97537.03;;;13.61;42.04
72677;BME280;60755;51.374;10.662;2023-04-27T12:01:00;97534.19;;;13.07;41.74
72677;BME280;60755;51.374;10.662;2023-04-27T12:03:27;97539.41;;;13.02;41.08
72677;BME280;60755;51.374;10.662;2023-04-27T12:05:55;97535.44;;;13.60;44.17
72677;BME280;60755;51.374;10.662;2023-04-27T12:08:22;97538.28;;;12.98;40.95
72677;BME280;60755;51.374;10.662;2023-04-27T12:10:51;97536.78;;;11.77;43.73
72677;BME280;60755;51.374;10.662;2023-04-27T12:13:18;97537.25;;;11.23;44.82
72677;BME280;60755;51.374;10.662;2023-04-27T12:15:45;97542.78;;;10.62;47.85
72677;BME280;60755;51.374;10.662;2023-04-27T12:18:12;97546.09;;;11.05;47.04
72677;BME280;60755;51.374;10.662;2023-04-27T12:20:38;97534.19;;;10.55;46.27
72677;BME280;60755;51.374;10.662;2023-04-27T12:23:05;97539.13;;;10.63;47.24
72677;BME280;60755;51.374;10.662;2023-04-27T12:25:32;97547.47;;;10.72;47.06
72677;BME280;60755;51.374;10.662;2023-04-27T12:28:01;97534.78;;;10.92;47.02
72677;BME280;60755;51.374;10.662;2023-04-27T12:30:28;97532.38;;;10.79;47.37
72677;BME280;60755;51.374;10.662;2023-04-27T12:32:55;97530.41;;;10.98;45.83
72677;BME280;60755;51.374;10.662;2023-04-27T12:35:24;97527.41;;;11.30;43.70
72677;BME280;60755;51.374;10.662;2023-04-27T12:37:50;97524.94;;;10.64;43.84
72677;BME280;60755;51.374;10.662;2023-04-27T12:40:17;97515.81;;;11.02;44.66
72677;BME280;60755;51.374;10.662;2023-04-27T12:42:45;97519.47;;;10.78;43.92
72677;BME280;60755;51.374;10.662;2023-04-27T12:45:13;97516.03;;;10.89;44.03
72677;BME280;60755;51.374;10.662;2023-04-27T12:47:40;97511.19;;;10.39;45.80
72677;BME280;60755;51.374;10.662;2023-04-27T12:50:08;97514.50;;;9.63;45.61
72677;BME280;60755;51.374;10.662;2023-04-27T12:52:35;97508.19;;;10.24;44.92
72677;BME280;60755;51.374;10.662;2023-04-27T12:55:02;97503.47;;;10.68;44.05
72677;BME280;60755;51.374;10.662;2023-04-27T12:57:30;97503.69;;;10.54;45.31
72677;BME280;60755;51.374;10.662;2023-04-27T12:59:57;97491.22;;;10.97;42.81
72677;BME280;60755;51.374;10.662;2023-04-27T13:02:25;97489.28;;;11.44;43.21
72677;BME280;60755;51.374;10.662;2023-04-27T13:04:53;97497.97;;;11.85;47.19